Time;durP1;ratioP1;P1;durP2;ratioP2;P2;SDS_P1;SDS_P2;PMS_P1;PMS_P2;Temp;Humidity;BMP_temperature;BMP_pressure;BME280_temperature;BME280_humidity;BME280_pressure;Samples;Min_cycle;Max_cycle;Signal;HPM_P1;HPM_P2
2022/03/22 00:00:29;;;;;;;16.25;12.07;;;;;;;7.61;31.71;100923.94;6336826;22;20462;-88
2022/03/22 00:02:55;;;;;;;14.75;11.75;;;;;;;7.03;32.25;100835.84;6309169;22;20432;-89
2022/03/22 00:05:20;;;;;;;18.47;12.43;;;;;;;7.63;32.17;100934.34;6309115;22;19998;-88
2022/03/22 00:07:46;;;;;;;18.30;12.80;;;;;;;7.38;32.02;100879.44;6336845;22;20333;-89
2022/03/22 00:10:11;;;;;;;16.40;13.20;;;;;;;6.76;32.40;100791.66;6303710;22;20019;-88
2022/03/22 00:12:37;;;;;;;17.38;13.52;;;;;;;7.10;32.74;100841.44;6303746;22;20007;-88
2022/03/22 00:15:04;;;;;;;17.35;13.45;;;;;;;7.23;32.56;100884.16;6303941;22;20015;-88
2022/03/22 00:17:29;;;;;;;17.70;13.47;;;;;;;7.24;33.11;100904.22;6305411;22;20041;-88
2022/03/22 00:19:55;;;;;;;20.37;14.50;;;;;;;6.66;32.61;100788.06;6305543;22;20066;-89
2022/03/22 00:22:22;;;;;;;20.53;14.20;;;;;;;7.38;32.67;100898.66;6305627;22;20002;-89
2022/03/22 00:24:47;;;;;;;18.73;13.63;;;;;;;5.74;32.88;100644.97;6305694;22;20003;-89
2022/03/22 00:27:13;;;;;;;19.27;13.13;;;;;;;7.21;33.09;100880.81;6303934;22;20410;-89
2022/03/22 00:29:38;;;;;;;17.38;13.57;;;;;;;7.27;33.47;100903.97;6305358;22;20381;-88
2022/03/22 00:32:08;;;;;;;16.95;13.32;;;;;;;6.97;32.93;100846.84;6304934;22;20545;-89
2022/03/22 00:34:44;;;;;;;17.20;13.73;;;;;;;6.58;33.31;100779.97;6305333;22;20056;-89
2022/03/22 00:37:17;;;;;;;19.90;15.10;;;;;;;7.26;33.61;100895.25;6303798;22;19999;-89
2022/03/22 00:39:44;;;;;;;20.23;14.63;;;;;;;7.24;33.20;100904.22;6305528;22;20360;-89
2022/03/22 00:42:14;;;;;;;18.35;13.98;;;;;;;7.26;33.76;100900.50;6304105;22;19995;-88
2022/03/22 00:44:39;;;;;;;18.53;13.93;;;;;;;7.17;33.33;100872.34;6305805;22;20070;-89
2022/03/22 00:47:08;;;;;;;20.43;14.20;;;;;;;7.42;33.23;100897.47;6304030;22;20031;-88
2022/03/22 00:49:36;;;;;;;17.60;14.07;;;;;;;7.14;32.88;100835.00;6303646;22;19999;-89
2022/03/22 00:52:04;;;;;;;19.98;15.32;;;;;;;7.48;33.28;100888.28;6303557;22;20448;-89
2022/03/22 00:54:29;;;;;;;17.50;14.90;;;;;;;7.05;33.27;100828.69;6304025;22;20030;-89
2022/03/22 00:56:55;;;;;;;20.67;14.80;;;;;;;6.71;32.97;100771.97;6303673;22;19995;-89
2022/03/22 01:02:05;;;;;;;21.33;15.20;;;;;;;6.68;33.54;100768.63;6305014;22;20052;-88
2022/03/22 01:04:31;;;;;;;19.90;15.18;;;;;;;7.05;33.31;100817.34;6305750;22;20066;-88
2022/03/22 01:06:56;;;;;;;19.67;15.73;;;;;;;7.22;33.44;100862.31;6303652;22;20487;-88
2022/03/22 01:09:22;;;;;;;19.95;14.77;;;;;;;7.39;33.12;100879.31;6303654;22;19999;-89
2022/03/22 01:11:47;;;;;;;18.73;13.70;;;;;;;6.67;33.12;100787.94;6278023;22;20495;-89
2022/03/22 01:14:13;;;;;;;19.70;14.25;;;;;;;7.21;33.57;100857.16;6278691;22;20007;-89
2022/03/22 01:16:39;;;;;;;18.10;14.27;;;;;;;7.32;32.95;100868.47;6278019;22;20022;-89
2022/03/22 01:19:06;;;;;;;18.50;13.37;;;;;;;7.34;33.46;100860.47;6305624;22;19995;-89
2022/03/22 01:21:32;;;;;;;16.33;12.47;;;;;;;6.80;33.11;100792.25;6305447;22;20015;-88
2022/03/22 01:23:59;;;;;;;15.90;12.37;;;;;;;6.91;33.46;100819.31;6305228;22;20418;-89
2022/03/22 01:26:25;;;;;;;16.70;13.00;;;;;;;7.10;33.73;100834.41;6277881;22;20003;-89
2022/03/22 01:28:51;;;;;;;17.63;13.60;;;;;;;7.07;33.18;100831.19;6277288;22;20107;-90
2022/03/22 01:31:17;;;;;;;15.57;12.33;;;;;;;7.27;33.41;100825.16;6277545;22;20027;-89
2022/03/22 01:33:42;;;;;;;15.23;12.47;;;;;;;7.11;33.11;100791.44;6277759;22;20037;-89
2022/03/22 01:36:08;;;;;;;18.20;14.67;;;;;;;6.74;33.72;100769.13;6305496;22;20070;-88
2022/03/22 01:38:33;;;;;;;16.95;12.88;;;;;;;6.75;33.26;100721.75;6277720;22;19999;-89
2022/03/22 01:40:59;;;;;;;17.50;12.97;;;;;;;7.44;33.32;100856.16;6277806;22;20034;-89
2022/03/22 01:43:24;;;;;;;16.88;12.98;;;;;;;7.27;33.11;100796.25;6305303;22;19998;-89
2022/03/22 01:45:49;;;;;;;15.88;12.00;;;;;;;7.17;33.25;100785.66;6279585;22;20009;-89
2022/03/22 01:48:15;;;;;;;14.75;11.45;;;;;;;6.90;33.23;100725.75;6279945;22;20452;-89
2022/03/22 01:50:41;;;;;;;15.23;11.17;;;;;;;7.09;32.90;100761.00;6279564;22;20003;-89
2022/03/22 01:53:10;;;;;;;16.13;11.00;;;;;;;6.98;32.47;100757.47;6307208;22;20004;-89
2022/03/22 01:55:35;;;;;;;14.20;10.32;;;;;;;6.45;32.50;100651.56;6279659;22;20057;-89
2022/03/22 01:58:01;;;;;;;12.88;9.48;;;;;;;6.86;31.92;100707.75;6306901;22;20395;-89
2022/03/22 02:00:26;;;;;;;11.68;10.00;;;;;;;7.12;31.72;100743.19;6306823;22;19995;-89
2022/03/22 02:05:54;;;;;;;12.57;9.53;;;;;;;7.70;31.25;100822.47;6306769;22;20462;-89
2022/03/22 02:08:24;;;;;;;12.87;9.30;;;;;;;7.68;31.90;100816.50;6306770;22;19995;-89
2022/03/22 02:10:50;;;;;;;11.77;8.77;;;;;;;7.43;30.98;100809.81;6297616;22;20015;-89
2022/03/22 02:13:16;;;;;;;13.10;9.55;;;;;;;7.47;31.34;100792.00;6337700;22;20081;-89
2022/03/22 02:15:45;;;;;;;13.87;10.33;;;;;;;7.22;30.84;100736.22;6326243;22;20004;-88
2022/03/22 02:18:12;;;;;;;13.57;9.93;;;;;;;6.93;31.23;100675.59;6367836;22;20003;-88
2022/03/22 02:20:38;;;;;;;14.18;9.30;;;;;;;7.36;31.05;100735.06;6364894;22;20010;-89
2022/03/22 02:23:05;;;;;;;11.30;9.02;;;;;;;7.79;31.22;100803.28;6337922;22;19995;-88
2022/03/22 02:25:33;;;;;;;13.43;9.30;;;;;;;6.96;30.65;100662.22;6310218;22;19995;-88
2022/03/22 02:27:58;;;;;;;10.15;8.50;;;;;;;7.69;30.51;100793.69;6310245;22;20055;-88
2022/03/22 02:30:24;;;;;;;13.10;9.80;;;;;;;7.70;30.26;100764.63;6337798;22;20023;-89
2022/03/22 02:32:55;;;;;;;13.18;9.75;;;;;;;7.91;30.66;100799.63;6337984;22;20003;-89
2022/03/22 02:35:22;;;;;;;12.15;9.93;;;;;;;7.94;30.19;100790.63;6310443;22;20541;-88
2022/03/22 02:37:48;;;;;;;12.52;9.80;;;;;;;7.78;30.33;100779.75;6310335;22;20038;-88
2022/03/22 02:40:14;;;;;;;13.00;8.63;;;;;;;7.15;30.47;100664.16;6310365;22;20005;-88
2022/03/22 02:42:45;;;;;;;11.47;8.87;;;;;;;7.64;30.42;100749.38;6337842;22;20021;-88
2022/03/22 02:45:11;;;;;;;10.97;9.27;;;;;;;7.20;30.15;100667.22;6337831;22;20048;-88
2022/03/22 02:47:40;;;;;;;10.88;8.60;;;;;;;7.70;30.13;100755.91;6337857;22;20105;-88
2022/03/22 02:50:07;;;;;;;12.73;9.20;;;;;;;7.89;30.06;100782.31;6319624;22;19999;-88
2022/03/22 02:52:33;;;;;;;11.68;8.75;;;;;;;7.89;29.99;100787.56;6364834;22;19999;-88
2022/03/22 02:54:58;;;;;;;11.88;9.85;;;;;;;6.96;30.00;100624.63;6358048;22;20051;-88
2022/03/22 02:57:24;;;;;;;12.05;9.35;;;;;;;7.34;29.90;100694.97;6309760;22;20002;-89
2022/03/22 02:59:49;;;;;;;12.25;8.80;;;;;;;7.28;30.14;100672.66;6309744;22;20074;-89
2022/03/22 03:02:15;;;;;;;15.63;9.88;;;;;;;7.13;30.42;100652.09;6309762;22;20097;-89
2022/03/22 03:04:40;;;;;;;13.00;9.35;;;;;;;7.18;30.07;100666.53;6337726;22;20030;-88
2022/03/22 03:07:06;;;;;;;10.43;8.77;;;;;;;7.65;30.40;100720.34;6309999;22;20001;-89
2022/03/22 03:09:31;;;;;;;12.80;9.68;;;;;;;7.14;30.38;100685.28;6309806;22;20003;-88
2022/03/22 03:11:56;;;;;;;13.27;9.85;;;;;;;6.53;29.97;100530.25;6337528;22;20006;-88
2022/03/22 03:14:40;;;;;;;14.20;9.75;;;;;;;7.60;30.45;100724.31;6310087;22;20466;-88
2022/03/22 03:17:08;;;;;;;12.07;9.30;;;;;;;7.61;30.08;100718.94;6310260;22;19994;-88
2022/03/22 03:19:33;;;;;;;11.52;8.80;;;;;;;7.13;30.65;100660.81;6337678;22;19999;-89
2022/03/22 03:21:59;;;;;;;13.10;9.63;;;;;;;7.80;30.36;100755.00;6309894;22;20044;-88
2022/03/22 03:24:25;;;;;;;12.10;9.68;;;;;;;7.36;30.87;100685.16;6309949;22;20009;-89
2022/03/22 03:26:51;;;;;;;11.15;9.05;;;;;;;7.56;30.93;100747.41;6337278;22;19999;-89
2022/03/22 03:29:16;;;;;;;11.43;8.90;;;;;;;7.75;31.00;100748.47;6309866;22;20028;-89
2022/03/22 03:31:42;;;;;;;11.95;8.80;;;;;;;7.32;31.13;100695.09;6309669;22;20007;-89
2022/03/22 03:34:08;;;;;;;14.67;10.03;;;;;;;7.64;31.13;100730.97;6309651;22;20033;-88
2022/03/22 03:36:33;;;;;;;16.33;9.60;;;;;;;7.38;31.06;100700.78;6309589;22;20002;-88
2022/03/22 03:38:59;;;;;;;16.02;9.82;;;;;;;7.16;30.98;100675.50;6337390;22;20028;-89
2022/03/22 03:47:05;;;;;;;10.23;8.47;;;;;;;7.42;30.71;100682.00;6337308;22;20005;-89
2022/03/22 03:49:34;;;;;;;13.25;9.15;;;;;;;7.84;31.35;100743.25;6309619;22;20094;-88
2022/03/22 03:52:00;;;;;;;12.52;9.07;;;;;;;7.51;30.80;100701.44;6309516;22;19999;-89
2022/03/22 03:54:26;;;;;;;12.60;9.35;;;;;;;6.48;31.15;100520.16;6309796;22;20029;-89
2022/03/22 03:56:51;;;;;;;13.65;10.35;;;;;;;7.77;31.17;100750.00;6337361;22;19991;-88
2022/03/22 03:59:17;;;;;;;15.25;9.60;;;;;;;7.25;30.97;100653.69;6309512;22;19998;-89
2022/03/22 04:01:44;;;;;;;10.88;9.45;;;;;;;7.41;30.67;100669.00;6309378;22;19991;-89
2022/03/22 04:04:09;;;;;;;16.05;10.07;;;;;;;7.77;30.94;100743.91;6337259;22;20002;-89
2022/03/22 04:06:35;;;;;;;14.10;10.47;;;;;;;6.78;30.79;100571.06;6309327;22;20015;-89
2022/03/22 04:09:00;;;;;;;14.40;10.43;;;;;;;7.10;31.03;100623.47;6309492;22;19999;-87
2022/03/22 04:11:26;;;;;;;15.07;10.43;;;;;;;7.46;31.42;100685.25;6309498;22;20015;-88
2022/03/22 04:13:52;;;;;;;14.50;10.75;;;;;;;7.47;31.22;100690.34;6309455;22;20333;-89
2022/03/22 04:16:17;;;;;;;13.90;9.63;;;;;;;7.83;31.38;100753.91;6309455;22;20459;-89
2022/03/22 04:18:42;;;;;;;13.40;10.00;;;;;;;7.61;31.55;100728.63;6309612;22;20352;-89
2022/03/22 04:21:08;;;;;;;13.67;10.17;;;;;;;6.68;31.48;100563.09;6309592;22;20003;-88
2022/03/22 04:23:33;;;;;;;14.63;10.87;;;;;;;7.57;31.39;100717.53;6309421;22;19995;-87
2022/03/22 04:26:00;;;;;;;17.17;11.18;;;;;;;7.80;31.88;100755.00;6336933;22;20070;-87
2022/03/22 04:33:53;;;;;;;15.68;11.07;;;;;;;7.40;32.19;100730.38;6336697;22;20052;-88
2022/03/22 04:36:19;;;;;;;13.77;10.95;;;;;;;6.74;32.99;100636.09;6336586;22;20390;-88
2022/03/22 04:38:44;;;;;;;18.67;11.68;;;;;;;7.21;32.72;100692.53;6336760;22;19995;-88
2022/03/22 04:41:10;;;;;;;13.87;10.77;;;;;;;7.44;32.46;100722.16;6309190;22;20003;-88
2022/03/22 04:43:35;;;;;;;16.77;12.10;;;;;;;7.33;32.71;100736.16;6309279;22;20005;-89
2022/03/22 04:46:01;;;;;;;16.33;10.98;;;;;;;7.06;33.15;100664.09;6337029;22;20458;-88
2022/03/22 04:48:27;;;;;;;15.93;11.83;;;;;;;7.16;32.74;100689.44;6309369;22;20002;-88
2022/03/22 04:56:43;;;;;;;18.65;12.05;;;;;;;7.28;32.82;100711.22;6308965;22;20072;-89
2022/03/22 04:59:06;;;;;;;15.93;10.18;;;;;;;7.21;32.84;100700.41;6336902;22;20060;-88
2022/03/22 05:01:31;;;;;;;17.48;11.70;;;;;;;6.92;33.24;100631.09;6309029;22;19995;-88
2022/03/22 05:03:57;;;;;;;15.90;12.50;;;;;;;7.27;32.83;100683.31;6309241;22;20069;-89
2022/03/22 05:06:25;;;;;;;18.80;11.70;;;;;;;6.74;32.93;100580.97;6308923;22;20040;-89
2022/03/22 05:08:54;;;;;;;19.20;12.00;;;;;;;7.61;32.77;100734.69;6309069;22;20427;-88
2022/03/22 05:11:19;;;;;;;14.83;12.03;;;;;;;7.17;32.78;100645.63;6336103;22;20011;-88
2022/03/22 05:13:45;;;;;;;19.75;12.10;;;;;;;7.42;32.71;100683.81;6336647;22;20006;-88
2022/03/22 05:16:10;;;;;;;17.30;12.23;;;;;;;7.37;32.79;100673.69;6309047;22;20055;-88
2022/03/22 05:18:36;;;;;;;21.97;13.37;;;;;;;7.05;32.70;100615.16;6309456;22;19998;-89
2022/03/22 05:21:04;;;;;;;18.77;11.65;;;;;;;7.80;32.49;100735.75;6311029;22;20070;-88
2022/03/22 05:23:36;;;;;;;26.30;13.90;;;;;;;7.54;32.73;100691.50;6311092;22;20459;-89
2022/03/22 05:26:04;;;;;;;19.08;12.85;;;;;;;7.59;32.71;100712.97;6310914;22;19999;-88
2022/03/22 05:28:30;;;;;;;18.60;13.03;;;;;;;7.83;32.79;100738.97;6310874;22;20466;-88
2022/03/22 05:30:56;;;;;;;20.95;14.82;;;;;;;7.60;32.91;100690.16;6311025;22;20034;-88
2022/03/22 05:33:23;;;;;;;17.33;13.52;;;;;;;7.28;32.80;100650.81;6310950;22;20054;-88
2022/03/22 05:35:48;;;;;;;15.17;12.17;;;;;;;7.80;32.60;100722.63;6310756;22;19999;-89
2022/03/22 05:38:15;;;;;;;17.33;12.77;;;;;;;7.50;33.04;100668.25;6338178;22;19998;-88
2022/03/22 05:40:40;;;;;;;17.38;13.68;;;;;;;7.45;33.34;100678.31;6310459;22;20001;-87
2022/03/22 05:43:07;;;;;;;22.67;14.38;;;;;;;7.49;33.07;100675.31;6310540;22;20074;-90
2022/03/22 05:45:32;;;;;;;19.55;12.50;;;;;;;7.00;33.67;100605.03;6310506;22;19991;-89
2022/03/22 05:48:00;;;;;;;21.17;13.50;;;;;;;7.02;33.32;100600.50;6310462;22;20531;-88
2022/03/22 05:50:29;;;;;;;20.90;15.37;;;;;;;7.21;33.42;100645.25;6310606;22;19999;-89
2022/03/22 05:52:55;;;;;;;21.17;14.25;;;;;;;7.36;33.29;100666.75;6338462;22;20006;-88
2022/03/22 05:55:20;;;;;;;20.88;14.90;;;;;;;7.50;33.35;100678.75;6310551;22;19999;-88
2022/03/22 05:57:46;;;;;;;19.17;13.18;;;;;;;7.49;32.90;100648.19;6310515;22;20026;-88
2022/03/22 06:00:13;;;;;;;16.08;12.27;;;;;;;7.94;33.15;100720.47;6310381;22;20006;-89
2022/03/22 06:02:40;;;;;;;18.33;13.33;;;;;;;7.50;32.97;100641.97;6310995;22;19995;-88
2022/03/22 06:05:14;;;;;;;17.27;12.50;;;;;;;7.37;33.18;100591.41;6338030;22;20488;-89
2022/03/22 06:07:40;;;;;;;16.73;12.85;;;;;;;8.08;32.68;100690.34;6338025;22;20021;-89
2022/03/22 06:10:08;;;;;;;17.65;12.23;;;;;;;8.25;32.69;100715.19;6309879;22;20033;-88
2022/03/22 06:12:44;;;;;;;20.15;13.50;;;;;;;8.16;33.05;100687.88;6309747;22;20366;-89
2022/03/22 06:15:38;;;;;;;17.00;12.02;;;;;;;7.82;32.76;100612.91;6337966;22;20398;-88
2022/03/22 06:18:05;;;;;;;18.90;13.05;;;;;;;7.63;32.86;100580.34;6338079;22;20018;-88
2022/03/22 06:20:36;;;;;;;19.75;13.00;;;;;;;8.02;32.25;100637.44;6310344;22;20432;-88
2022/03/22 06:23:04;;;;;;;17.50;12.52;;;;;;;7.97;32.60;100620.28;6310378;22;19991;-88
2022/03/22 06:25:30;;;;;;;31.60;14.23;;;;;;;8.05;32.45;100622.22;6337476;22;20002;-89
2022/03/22 06:27:57;;;;;;;19.83;13.15;;;;;;;8.79;32.33;100701.59;6310524;22;20002;-89
2022/03/22 06:30:23;;;;;;;16.23;11.30;;;;;;;8.51;32.40;100650.59;6310230;22;20002;-89
2022/03/22 06:32:57;;;;;;;20.08;12.43;;;;;;;8.88;31.97;100718.38;6310222;22;20028;-88
2022/03/22 06:35:28;;;;;;;18.45;14.93;;;;;;;8.59;32.22;100681.50;6310064;22;20006;-89
2022/03/22 06:37:54;;;;;;;21.33;13.73;;;;;;;8.62;32.02;100694.38;6309960;22;20358;-89
2022/03/22 06:40:22;;;;;;;20.30;13.73;;;;;;;8.64;32.12;100670.56;6310226;22;20065;-88
2022/03/22 06:42:48;;;;;;;29.70;18.77;;;;;;;8.06;31.96;100573.09;6307604;22;20087;-88
2022/03/22 06:45:14;;;;;;;20.05;13.32;;;;;;;8.15;32.13;100573.09;6308272;22;19998;-88
2022/03/22 06:47:41;;;;;;;20.25;14.13;;;;;;;8.31;31.82;100585.72;6336102;22;20025;-88
2022/03/22 06:50:08;;;;;;;15.90;11.82;;;;;;;8.39;31.65;100611.38;6336318;22;19995;-88
2022/03/22 06:52:34;;;;;;;19.23;12.88;;;;;;;8.15;32.03;100594.13;6337549;22;20006;-88
2022/03/22 06:55:00;;;;;;;21.08;14.35;;;;;;;8.99;32.20;100704.25;6310053;22;19994;-88
2022/03/22 06:57:28;;;;;;;18.80;13.80;;;;;;;8.54;32.25;100647.69;6337827;22;20006;-88
2022/03/22 06:59:58;;;;;;;21.70;14.43;;;;;;;8.49;32.34;100633.28;6310516;22;19999;-88
2022/03/22 07:02:24;;;;;;;19.65;14.13;;;;;;;9.19;32.18;100738.34;6310323;22;20023;-88
2022/03/22 07:04:50;;;;;;;18.23;13.98;;;;;;;8.62;32.57;100625.94;6336550;22;20056;-88
2022/03/22 07:07:16;;;;;;;21.27;14.55;;;;;;;9.07;32.33;100704.38;6338103;22;20351;-88
2022/03/22 07:09:42;;;;;;;23.85;15.43;;;;;;;9.03;32.49;100679.31;6310075;22;20003;-88
2022/03/22 07:12:08;;;;;;;20.67;14.32;;;;;;;8.87;31.88;100672.75;6337383;22;20034;-88
2022/03/22 07:14:34;;;;;;;19.77;13.80;;;;;;;8.70;32.28;100649.75;6309346;22;20003;-88
2022/03/22 07:16:59;;;;;;;19.98;13.52;;;;;;;9.50;32.38;100731.09;6308833;22;20061;-86
2022/03/22 07:19:25;;;;;;;17.05;13.45;;;;;;;9.17;32.09;100666.53;6335482;22;20047;-87
2022/03/22 07:21:51;;;;;;;20.38;13.25;;;;;;;8.98;31.90;100615.66;6309333;22;19995;-87
2022/03/22 07:24:20;;;;;;;20.63;14.00;;;;;;;9.68;31.78;100712.75;6308758;22;19999;-86
2022/03/22 07:26:46;;;;;;;17.52;13.45;;;;;;;9.73;31.52;100714.97;6346355;22;20006;-86
2022/03/22 07:29:13;;;;;;;17.15;12.20;;;;;;;9.03;31.39;100595.84;6330182;22;20081;-87
2022/03/22 07:31:39;;;;;;;22.42;14.45;;;;;;;9.92;31.35;100699.06;6309230;22;20030;-87
2022/03/22 07:34:11;;;;;;;20.20;13.75;;;;;;;9.32;31.38;100585.22;6309613;22;20355;-86
2022/03/22 07:36:37;;;;;;;;;;;;;;;10.02;31.75;100691.09;6338676;22;20479;-87
2022/03/22 07:39:07;;;;;;;18.08;11.85;;;;;;;9.68;31.23;100606.44;6337229;22;19902;-86
2022/03/22 07:41:34;;;;;;;16.52;11.38;;;;;;;10.30;31.14;100679.59;6336702;22;20052;-87
2022/03/22 07:44:01;;;;;;;16.35;11.63;;;;;;;9.98;31.37;100627.25;6335590;22;20021;-85
2022/03/22 07:46:27;;;;;;;20.67;12.70;;;;;;;10.24;31.18;100655.59;6305817;22;20031;-85
2022/03/22 07:48:53;;;;;;;16.17;12.02;;;;;;;10.36;31.08;100649.97;6308158;22;19999;-85
2022/03/22 07:54:03;;;;;;;18.48;12.85;;;;;;;10.67;30.76;100684.78;6335692;22;20063;-85
2022/03/22 07:56:30;;;;;;;19.50;12.57;;;;;;;10.66;31.04;100677.00;6309103;22;20034;-86
2022/03/22 07:58:56;;;;;;;21.40;13.55;;;;;;;10.19;30.91;100608.50;6333454;22;20078;-85
2022/03/22 08:01:22;;;;;;;18.42;11.98;;;;;;;10.25;31.29;100621.13;6333886;22;20017;-86
2022/03/22 08:03:47;;;;;;;18.85;12.68;;;;;;;10.24;31.13;100616.00;6336906;22;20436;-86
2022/03/22 08:06:13;;;;;;;18.80;13.10;;;;;;;10.26;31.60;100603.50;6309038;22;19991;-86
2022/03/22 08:08:43;;;;;;;19.85;13.25;;;;;;;10.72;31.36;100669.31;6309270;22;19999;-86
2022/03/22 08:11:09;;;;;;;18.83;12.60;;;;;;;10.73;31.72;100647.19;6308335;22;20098;-85
2022/03/22 08:13:36;;;;;;;16.90;11.70;;;;;;;10.58;31.83;100592.44;6307957;22;20002;-86
2022/03/22 08:16:02;;;;;;;17.35;12.40;;;;;;;11.09;31.79;100634.75;6307982;22;19998;-86
2022/03/22 08:18:28;;;;;;;17.50;12.15;;;;;;;10.91;31.11;100599.63;6334289;22;20005;-86
2022/03/22 08:20:53;;;;;;;15.43;11.40;;;;;;;11.09;31.79;100620.72;6335389;22;19986;-84
2022/03/22 08:23:19;;;;;;;14.55;10.70;;;;;;;10.99;32.16;100585.63;6336054;22;20348;-86
2022/03/22 08:25:46;;;;;;;14.60;11.40;;;;;;;11.18;32.32;100619.81;6307044;22;20428;-85
2022/03/22 08:28:11;;;;;;;13.18;10.35;;;;;;;11.48;32.21;100638.81;6308945;22;19995;-85
2022/03/22 08:30:39;;;;;;;17.45;11.35;;;;;;;11.33;32.29;100578.59;6335771;22;20006;-84
2022/03/22 08:33:06;;;;;;;17.00;10.48;;;;;;;11.73;32.82;100607.03;6335692;22;20460;-87
2022/03/22 08:35:32;;;;;;;11.35;8.38;;;;;;;11.78;32.72;100617.16;6306972;22;20072;-86
2022/03/22 08:37:58;;;;;;;14.77;8.55;;;;;;;11.44;32.92;100540.47;6308176;22;20428;-85
2022/03/22 08:40:23;;;;;;;15.68;8.48;;;;;;;11.64;33.04;100552.44;6336700;22;19995;-86
2022/03/22 08:42:52;;;;;;;15.18;8.55;;;;;;;11.69;32.68;100536.09;6308279;22;19998;-85
2022/03/22 08:45:25;;;;;;;16.35;8.25;;;;;;;12.04;33.28;100580.06;6308510;22;20006;-85
2022/03/22 08:47:53;;;;;;;10.95;8.07;;;;;;;12.24;33.61;100599.97;6335401;22;20389;-85
2022/03/22 08:50:20;;;;;;;18.58;7.25;;;;;;;12.33;33.54;100617.53;6335451;22;19999;-86
2022/03/22 08:52:47;;;;;;;16.08;6.82;;;;;;;12.21;33.58;100610.06;6306057;22;20028;-85
2022/03/22 08:55:14;;;;;;;11.40;6.80;;;;;;;12.22;33.50;100601.13;6334879;22;20436;-86
2022/03/22 08:57:41;;;;;;;12.45;6.60;;;;;;;12.13;34.08;100608.22;6307257;22;20363;-86
2022/03/22 09:00:09;;;;;;;11.57;7.03;;;;;;;11.92;34.20;100606.00;6308495;22;20045;-86
2022/03/22 09:02:39;;;;;;;17.23;7.05;;;;;;;11.59;35.02;100575.06;6308572;22;20350;-86
2022/03/22 09:07:51;;;;;;;13.88;6.40;;;;;;;11.53;34.66;100602.97;6336059;22;20087;-86
2022/03/22 09:10:19;;;;;;;13.85;7.82;;;;;;;10.83;34.73;100478.03;6308494;22;20035;-86
2022/03/22 09:12:45;;;;;;;13.95;7.70;;;;;;;10.88;35.15;100512.75;6308700;22;20003;-84
2022/03/22 09:15:11;;;;;;;13.45;6.50;;;;;;;11.16;34.85;100539.84;6336077;22;20056;-85
2022/03/22 09:17:37;;;;;;;15.88;7.18;;;;;;;10.74;35.41;100481.63;6307730;22;20026;-84
2022/03/22 09:20:04;;;;;;;12.43;7.35;;;;;;;11.07;35.62;100567.19;6307644;22;20589;-85
2022/03/22 09:22:29;;;;;;;12.75;9.13;;;;;;;11.10;35.55;100533.34;6336302;22;20348;-86
2022/03/22 09:24:55;;;;;;;11.48;7.25;;;;;;;11.40;35.36;100563.75;6334754;22;19995;-86
2022/03/22 09:27:20;;;;;;;14.90;7.28;;;;;;;10.83;35.29;100484.16;6308145;22;20002;-85
2022/03/22 09:29:46;;;;;;;11.70;8.02;;;;;;;11.50;35.70;100545.13;6308608;22;20343;-86
2022/03/22 09:32:12;;;;;;;17.15;9.13;;;;;;;11.28;35.52;100477.78;6308428;22;20005;-85
2022/03/22 09:34:37;;;;;;;12.25;8.20;;;;;;;11.80;35.56;100537.63;6335964;22;20474;-85
2022/03/22 09:37:03;;;;;;;13.25;7.55;;;;;;;11.55;35.28;100513.72;6335992;22;19995;-86
2022/03/22 09:39:28;;;;;;;15.20;7.63;;;;;;;11.63;35.65;100542.84;6308744;22;20086;-86
2022/03/22 09:41:56;;;;;;;14.23;8.38;;;;;;;12.00;34.90;100558.38;6308094;22;20021;-85
2022/03/22 09:44:21;;;;;;;12.10;7.45;;;;;;;11.45;35.77;100500.63;6335610;22;19999;-85
2022/03/22 09:46:50;;;;;;;18.10;8.30;;;;;;;11.37;35.20;100405.44;6335996;22;20080;-85
2022/03/22 09:49:16;;;;;;;12.25;7.57;;;;;;;12.34;34.22;100541.53;6336125;22;19995;-85
2022/03/22 09:51:45;;;;;;;11.85;7.32;;;;;;;13.15;33.78;100548.59;6335125;22;20006;-84
2022/03/22 09:54:18;;;;;;;14.02;8.30;;;;;;;12.88;33.41;100444.63;6306297;22;20148;-84
2022/03/22 09:56:45;;;;;;;16.33;8.27;;;;;;;13.89;32.82;100544.69;6307520;22;19999;-85
2022/03/22 09:59:12;;;;;;;21.80;8.27;;;;;;;13.96;32.31;100504.00;6308385;22;20029;-85
2022/03/22 10:01:38;;;;;;;12.68;7.90;;;;;;;14.39;31.99;100540.72;6335389;22;20002;-84
2022/03/22 10:04:05;;;;;;;15.98;9.07;;;;;;;14.39;31.52;100532.75;6336397;22;20003;-85
2022/03/22 10:06:32;;;;;;;13.55;8.70;;;;;;;14.11;32.08;100529.78;6309954;22;20003;-86
2022/03/22 10:08:58;;;;;;;14.85;9.27;;;;;;;14.13;31.82;100525.16;6310678;22;20420;-84
2022/03/22 10:11:37;;;;;;;10.10;8.10;;;;;;;13.82;31.93;100525.97;6309583;22;20011;-85
2022/03/22 10:14:03;;;;;;;11.38;7.32;;;;;;;13.60;32.50;100516.97;6309905;22;20002;-86
2022/03/22 10:16:29;;;;;;;15.63;8.30;;;;;;;13.81;32.35;100512.88;6309864;22;20006;-86
2022/03/22 10:18:54;;;;;;;11.77;7.22;;;;;;;14.37;31.75;100494.91;6337349;22;19995;-86
2022/03/22 10:21:20;;;;;;;19.00;8.85;;;;;;;14.41;31.07;100459.81;6309382;22;20009;-86
2022/03/22 10:23:55;;;;;;;15.57;9.55;;;;;;;13.96;30.24;100411.06;6309639;22;19995;-85
2022/03/22 10:26:30;;;;;;;15.13;8.82;;;;;;;13.63;30.87;100407.84;6309322;22;19994;-86
2022/03/22 10:28:56;;;;;;;10.77;8.07;;;;;;;14.07;30.64;100415.13;6308874;22;20356;-86
2022/03/22 10:31:37;;;;;;;11.02;7.60;;;;;;;14.27;29.94;100420.78;6309502;22;19994;-85
2022/03/22 10:34:03;;;;;;;12.73;7.83;;;;;;;14.53;30.40;100495.63;6336682;22;20006;-86
2022/03/22 10:36:33;;;;;;;12.63;8.88;;;;;;;14.17;30.16;100385.69;6336418;22;20054;-84
2022/03/22 10:38:59;;;;;;;15.10;8.40;;;;;;;15.19;30.02;100485.97;6337425;22;20002;-84
2022/03/22 10:41:32;;;;;;;10.50;7.55;;;;;;;15.12;29.19;100484.22;6309562;22;20011;-86
2022/03/22 10:44:09;;;;;;;10.38;7.60;;;;;;;14.98;28.96;100410.59;6307519;22;20003;-83
2022/03/22 10:46:36;;;;;;;15.18;8.85;;;;;;;15.74;28.91;100467.81;6310270;22;20411;-84
2022/03/22 10:49:05;;;;;;;11.63;8.05;;;;;;;15.92;28.82;100462.06;6337873;22;19999;-84
2022/03/22 10:51:35;;;;;;;12.95;9.38;;;;;;;15.96;28.33;100452.66;6309162;22;19998;-83
2022/03/22 10:54:01;;;;;;;23.33;8.00;;;;;;;16.25;27.86;100423.22;6309377;22;20003;-84
2022/03/22 10:56:27;;;;;;;16.60;9.50;;;;;;;16.79;27.27;100455.41;6309563;22;20052;-83
2022/03/22 10:58:57;;;;;;;19.45;10.93;;;;;;;16.56;26.56;100392.69;6337789;22;20018;-83
2022/03/22 11:01:24;;;;;;;17.02;10.13;;;;;;;16.23;26.97;100333.81;6336789;22;19999;-83
2022/03/22 11:03:56;;;;;;;11.65;8.55;;;;;;;17.06;26.66;100431.53;6310783;22;19999;-83
2022/03/22 11:06:25;;;;;;;14.55;9.65;;;;;;;16.73;26.91;100402.88;6338005;22;20069;-83
2022/03/22 11:08:50;;;;;;;12.90;9.63;;;;;;;15.87;27.11;100348.94;6309646;22;20033;-83
2022/03/22 11:11:17;;;;;;;22.95;8.52;;;;;;;16.21;27.45;100397.97;6309335;22;20011;-84
2022/03/22 11:13:43;;;;;;;19.38;9.48;;;;;;;16.42;27.50;100421.09;6309322;22;20056;-83
2022/03/22 11:16:10;;;;;;;13.32;8.98;;;;;;;16.49;26.94;100372.16;6335594;22;20003;-83
2022/03/22 11:18:37;;;;;;;15.73;8.23;;;;;;;17.11;26.87;100427.28;6336946;22;19999;-84
2022/03/22 11:21:03;;;;;;;15.48;8.00;;;;;;;16.27;26.75;100330.56;6309657;22;19999;-83
2022/03/22 11:23:31;;;;;;;15.25;8.30;;;;;;;16.71;27.14;100428.91;6336968;22;20436;-83
2022/03/22 11:26:17;;;;;;;19.00;9.80;;;;;;;16.67;27.37;100427.66;6337327;22;20069;-84
2022/03/22 11:28:44;;;;;;;14.95;9.27;;;;;;;16.40;27.38;100415.97;6310090;22;20025;-84
2022/03/22 11:31:13;;;;;;;12.32;9.13;;;;;;;15.87;27.65;100366.75;6336767;22;19998;-84
2022/03/22 11:36:28;;;;;;;16.35;8.70;;;;;;;15.55;28.55;100426.59;6337877;22;20007;-84
2022/03/22 11:38:58;;;;;;;15.95;9.15;;;;;;;15.22;28.57;100389.81;6343255;22;20017;-84
2022/03/22 11:44:29;;;;;;;13.33;8.77;;;;;;;14.53;28.86;100319.41;6355581;22;20010;-84
2022/03/22 11:47:02;;;;;;;15.68;8.88;;;;;;;14.41;29.09;100305.72;6329611;22;20099;-85
2022/03/22 11:49:28;;;;;;;14.57;10.10;;;;;;;14.20;29.31;100281.72;6326868;22;19998;-84